createdAt,value
2023-05-18T00:00:06.722Z,1.40
2023-05-18T00:02:34.220Z,2.35
2023-05-18T00:05:02.740Z,3.13
2023-05-18T00:07:34.290Z,3.25
2023-05-18T00:10:02.046Z,1.88
2023-05-18T00:12:29.312Z,2.78
2023-05-18T00:14:56.560Z,2.10
2023-05-18T00:17:23.765Z,1.88
2023-05-18T00:19:51.899Z,1.95
2023-05-18T00:22:19.111Z,3.60
2023-05-18T00:24:47.150Z,1.98
2023-05-18T00:27:15.607Z,2.55
2023-05-18T00:29:42.550Z,3.95
2023-05-18T00:32:09.579Z,3.17
2023-05-18T00:34:36.813Z,1.80
2023-05-18T00:37:03.870Z,1.98
2023-05-18T00:39:30.983Z,2.15
2023-05-18T00:41:58.335Z,2.15
2023-05-18T00:44:25.550Z,2.67
2023-05-18T00:46:52.544Z,5.30
2023-05-18T00:49:19.769Z,2.90
2023-05-18T00:51:47.321Z,2.03
2023-05-18T00:54:15.470Z,4.85
2023-05-18T00:56:42.934Z,4.22
2023-05-18T00:59:11.927Z,3.15
2023-05-18T01:01:44.003Z,3.45
2023-05-18T01:04:14.526Z,3.72
2023-05-18T01:06:42.546Z,2.75
2023-05-18T01:09:13.772Z,2.53
2023-05-18T01:12:16.709Z,2.83
2023-05-18T01:14:59.902Z,3.38
2023-05-18T01:17:44.003Z,3.08
2023-05-18T01:20:48.734Z,2.65
2023-05-18T01:23:37.515Z,2.58
2023-05-18T01:26:24.940Z,2.60
2023-05-18T01:28:53.644Z,4.68
2023-05-18T01:31:20.633Z,2.55
2023-05-18T01:33:47.572Z,4.65
2023-05-18T01:36:14.555Z,3.70
2023-05-18T01:38:44.207Z,2.72
2023-05-18T01:41:18.262Z,3.03
2023-05-18T01:44:20.952Z,3.25
2023-05-18T01:47:09.874Z,3.97
2023-05-18T01:49:46.157Z,1.95
2023-05-18T01:52:21.395Z,2.83
2023-05-18T01:54:52.616Z,5.07
2023-05-18T01:57:23.853Z,2.65
2023-05-18T01:59:51.491Z,4.65
2023-05-18T02:02:18.491Z,3.13
2023-05-18T02:04:45.441Z,3.63
2023-05-18T02:07:12.344Z,2.63
2023-05-18T02:09:39.281Z,2.60
2023-05-18T02:12:06.617Z,2.03
2023-05-18T02:14:33.965Z,3.67
2023-05-18T02:17:01.101Z,2.47
2023-05-18T02:19:28.251Z,2.90
2023-05-18T02:21:55.089Z,3.28
2023-05-18T02:24:23.411Z,3.03
2023-05-18T02:26:51.345Z,2.25
2023-05-18T02:29:18.426Z,3.47
2023-05-18T02:31:45.827Z,2.50
2023-05-18T02:34:15.481Z,1.50
2023-05-18T02:36:42.834Z,2.67
2023-05-18T02:39:10.625Z,2.38
2023-05-18T02:41:38.298Z,5.60
2023-05-18T02:44:06.349Z,3.33
2023-05-18T02:46:33.898Z,2.40
2023-05-18T02:49:01.236Z,3.28
2023-05-18T02:51:28.220Z,2.92
2023-05-18T02:53:55.097Z,2.25
2023-05-18T02:56:22.003Z,2.13
2023-05-18T02:58:48.928Z,2.95
2023-05-18T03:01:15.872Z,4.28
2023-05-18T03:03:43.369Z,1.55
2023-05-18T03:06:10.990Z,4.28
2023-05-18T03:08:37.940Z,1.83
2023-05-18T03:11:05.314Z,2.15
2023-05-18T03:13:32.467Z,2.90
2023-05-18T03:15:59.411Z,2.55
2023-05-18T03:18:26.372Z,1.88
2023-05-18T03:20:53.690Z,2.15
2023-05-18T03:23:20.894Z,1.83
2023-05-18T03:25:53.666Z,3.05
2023-05-18T03:28:21.492Z,1.65
2023-05-18T03:30:51.941Z,1.50
2023-05-18T03:33:18.972Z,1.90
2023-05-18T03:35:47.759Z,3.53
2023-05-18T03:38:15.949Z,1.67
2023-05-18T03:40:42.939Z,2.08
2023-05-18T03:43:09.858Z,3.00
2023-05-18T03:45:36.822Z,2.13
2023-05-18T03:48:03.965Z,3.50
2023-05-18T03:50:31.581Z,1.88
2023-05-18T03:52:58.527Z,3.13
2023-05-18T03:55:26.333Z,2.65
2023-05-18T03:57:53.913Z,2.22
2023-05-18T04:00:22.146Z,2.72
2023-05-18T04:02:51.966Z,1.90
2023-05-18T04:05:19.401Z,1.90
2023-05-18T04:07:46.922Z,4.15
2023-05-18T04:10:14.807Z,2.58
2023-05-18T04:12:41.823Z,1.50
2023-05-18T04:15:09.548Z,2.15
2023-05-18T04:17:36.686Z,2.38
2023-05-18T04:20:13.184Z,3.58
2023-05-18T04:22:49.307Z,2.28
2023-05-18T04:25:16.977Z,3.85
2023-05-18T04:27:50.444Z,1.60
2023-05-18T04:30:18.967Z,2.95
2023-05-18T04:32:46.152Z,2.88
2023-05-18T04:35:13.671Z,2.72
2023-05-18T04:37:41.326Z,4.03
2023-05-18T04:40:12.789Z,2.42
2023-05-18T04:42:45.851Z,2.25
2023-05-18T04:45:23.005Z,2.13
2023-05-18T04:47:54.095Z,3.92
2023-05-18T04:50:25.788Z,2.85
2023-05-18T04:52:54.155Z,4.68
2023-05-18T04:55:27.645Z,4.57
2023-05-18T04:57:56.921Z,3.03
2023-05-18T05:00:26.763Z,2.47
2023-05-18T05:02:54.994Z,2.15
2023-05-18T05:05:23.333Z,2.35
2023-05-18T05:07:54.264Z,2.72
2023-05-18T05:10:21.623Z,2.85
2023-05-18T05:12:50.594Z,6.60
2023-05-18T05:15:18.567Z,4.90
2023-05-18T05:17:49.005Z,3.17
2023-05-18T05:20:17.023Z,2.78
2023-05-18T05:22:44.458Z,2.60
2023-05-18T05:25:11.531Z,2.60
2023-05-18T05:27:38.816Z,2.70
2023-05-18T05:30:06.684Z,3.22
2023-05-18T05:32:35.032Z,2.65
2023-05-18T05:35:02.450Z,2.55
2023-05-18T05:37:29.539Z,3.38
2023-05-18T05:39:56.734Z,2.47
2023-05-18T05:42:25.661Z,2.00
2023-05-18T05:44:52.596Z,3.80
2023-05-18T05:47:19.562Z,4.07
2023-05-18T05:49:46.575Z,3.58
2023-05-18T05:52:13.898Z,3.72
2023-05-18T05:54:41.829Z,4.32
2023-05-18T05:57:08.792Z,5.22
2023-05-18T05:59:35.873Z,7.40
2023-05-18T06:02:02.935Z,3.53
2023-05-18T06:04:30.417Z,3.42
2023-05-18T06:06:57.634Z,3.38
2023-05-18T06:09:24.568Z,4.93
2023-05-18T06:11:52.933Z,2.88
2023-05-18T06:14:21.292Z,3.22
2023-05-18T06:16:48.708Z,2.78
2023-05-18T06:19:15.768Z,6.35
2023-05-18T06:21:43.091Z,4.75
2023-05-18T06:24:10.135Z,5.15
2023-05-18T06:26:37.027Z,4.63
2023-05-18T06:29:05.629Z,8.23
2023-05-18T06:31:32.798Z,6.00
2023-05-18T06:34:00.175Z,4.18
2023-05-18T06:36:27.073Z,5.28
2023-05-18T06:38:53.961Z,5.47
2023-05-18T06:41:22.273Z,5.60
2023-05-18T06:43:49.617Z,4.78
2023-05-18T06:46:24.308Z,3.88
2023-05-18T06:48:51.847Z,4.85
2023-05-18T06:51:18.898Z,3.88
2023-05-18T06:53:46.275Z,3.03
2023-05-18T06:56:13.315Z,4.90
2023-05-18T06:58:41.629Z,4.50
2023-05-18T07:01:09.244Z,4.88
2023-05-18T07:03:37.156Z,5.40
2023-05-18T07:06:04.953Z,4.05
2023-05-18T07:08:32.346Z,5.15
2023-05-18T07:11:02.365Z,4.35
2023-05-18T07:13:30.183Z,3.85
2023-05-18T07:15:57.909Z,3.97
2023-05-18T07:18:24.954Z,6.63
2023-05-18T07:20:52.149Z,4.40
2023-05-18T07:23:19.695Z,3.05
2023-05-18T07:25:46.937Z,5.18
2023-05-18T07:28:13.808Z,4.00
2023-05-18T07:30:41.247Z,4.03
2023-05-18T07:33:08.265Z,5.68
2023-05-18T07:35:36.629Z,3.33
2023-05-18T07:38:03.569Z,6.70
2023-05-18T07:40:30.545Z,4.07
2023-05-18T07:42:57.406Z,2.80
2023-05-18T07:45:24.357Z,4.05
2023-05-18T07:47:51.489Z,3.33
2023-05-18T07:50:18.516Z,5.43
2023-05-18T07:52:45.563Z,2.83
2023-05-18T07:55:12.912Z,5.53
2023-05-18T07:57:40.444Z,3.67
2023-05-18T08:00:09.875Z,3.25
2023-05-18T08:02:37.860Z,2.88
2023-05-18T08:05:05.954Z,5.68
2023-05-18T08:07:33.526Z,3.42
2023-05-18T08:10:00.653Z,4.20
2023-05-18T08:12:27.717Z,5.22
2023-05-18T08:14:54.758Z,5.57
2023-05-18T08:17:22.217Z,6.68
2023-05-18T08:19:49.398Z,3.55
2023-05-18T08:22:16.375Z,3.65
2023-05-18T08:24:45.075Z,5.22
2023-05-18T08:27:12.270Z,6.07
2023-05-18T08:29:39.237Z,4.38
2023-05-18T08:32:08.164Z,4.88
2023-05-18T08:34:36.152Z,4.72
2023-05-18T08:37:03.439Z,5.50
2023-05-18T08:39:32.200Z,4.70
2023-05-18T08:42:09.004Z,5.75
2023-05-18T08:44:45.850Z,4.43
2023-05-18T08:47:16.343Z,3.95
2023-05-18T08:49:44.375Z,4.38
2023-05-18T08:52:17.858Z,4.63
2023-05-18T08:54:45.044Z,4.20
2023-05-18T08:57:12.984Z,4.40
2023-05-18T08:59:44.593Z,3.75
2023-05-18T09:02:12.462Z,3.33
2023-05-18T09:04:42.691Z,3.40
2023-05-18T09:07:11.134Z,6.45
2023-05-18T09:09:39.789Z,7.43
2023-05-18T09:12:07.875Z,8.13
2023-05-18T09:14:35.335Z,4.95
2023-05-18T09:17:02.407Z,4.88
2023-05-18T09:19:29.536Z,4.25
2023-05-18T09:21:56.618Z,4.38
2023-05-18T09:24:25.055Z,4.15
2023-05-18T09:26:52.120Z,9.75
2023-05-18T09:29:21.014Z,6.03
2023-05-18T09:31:48.773Z,9.02
2023-05-18T09:34:16.132Z,7.95
2023-05-18T09:36:49.474Z,7.13
2023-05-18T09:39:16.439Z,4.97
2023-05-18T09:41:43.991Z,6.97
2023-05-18T09:44:12.599Z,3.47
2023-05-18T09:46:40.643Z,4.43
2023-05-18T09:49:08.518Z,4.65
2023-05-18T09:51:39.066Z,5.05
2023-05-18T09:54:08.818Z,4.75
2023-05-18T09:56:37.552Z,4.35
2023-05-18T09:59:12.603Z,4.07
2023-05-18T10:02:02.977Z,4.63
2023-05-18T10:04:38.610Z,4.05
2023-05-18T10:07:13.222Z,5.35
2023-05-18T10:09:45.323Z,4.85
2023-05-18T10:12:17.633Z,5.25
2023-05-18T10:14:46.188Z,4.20
2023-05-18T10:17:16.707Z,5.63
2023-05-18T10:19:46.012Z,3.70
2023-05-18T10:22:16.832Z,3.33
2023-05-18T10:24:46.393Z,6.75
2023-05-18T10:27:17.779Z,4.25
2023-05-18T10:29:47.757Z,8.57
2023-05-18T10:32:15.478Z,4.32
2023-05-18T10:34:44.320Z,8.48
2023-05-18T10:37:14.313Z,6.75
2023-05-18T10:39:45.811Z,5.75
2023-05-18T10:42:16.358Z,6.57
2023-05-18T10:44:45.306Z,6.15
2023-05-18T10:47:14.609Z,5.85
2023-05-18T10:49:50.147Z,7.80
2023-05-18T10:52:18.252Z,8.27
2023-05-18T10:54:47.055Z,7.00
2023-05-18T10:57:19.974Z,5.53
2023-05-18T10:59:48.487Z,8.43
2023-05-18T11:02:18.520Z,6.43
2023-05-18T11:04:51.821Z,7.20
2023-05-18T11:07:21.769Z,5.97
2023-05-18T11:09:49.838Z,6.45
2023-05-18T11:12:20.795Z,8.80
2023-05-18T11:14:52.712Z,5.70
2023-05-18T11:17:28.881Z,4.95
2023-05-18T11:20:12.894Z,7.85
2023-05-18T11:22:51.782Z,7.03
2023-05-18T11:25:24.540Z,6.70
2023-05-18T11:27:59.199Z,6.03
2023-05-18T11:30:50.382Z,7.38
2023-05-18T11:33:34.213Z,11.18
2023-05-18T11:36:04.060Z,10.05
2023-05-18T11:38:50.296Z,8.25
2023-05-18T11:41:35.040Z,6.72
2023-05-18T11:44:06.957Z,10.27
2023-05-18T11:46:37.101Z,8.00
2023-05-18T11:49:07.489Z,8.32
2023-05-18T11:52:01.200Z,7.82
2023-05-18T11:54:28.877Z,5.18
2023-05-18T11:56:56.402Z,7.07
2023-05-18T11:59:41.511Z,5.43
2023-05-18T12:02:13.027Z,8.40
2023-05-18T12:04:46.831Z,5.45
2023-05-18T12:07:14.466Z,6.72
2023-05-18T12:09:43.272Z,7.50
2023-05-18T12:12:14.013Z,7.90
2023-05-18T12:14:46.779Z,9.45
2023-05-18T12:17:14.128Z,10.02
2023-05-18T12:19:46.979Z,6.13
2023-05-18T12:22:18.046Z,9.40
2023-05-18T12:24:45.112Z,12.60
2023-05-18T12:27:14.428Z,9.20
2023-05-18T12:29:42.830Z,6.65
2023-05-18T12:32:11.487Z,6.07
2023-05-18T12:34:39.592Z,6.45
2023-05-18T12:37:10.016Z,6.18
2023-05-18T12:39:38.058Z,5.32
2023-05-18T12:42:15.355Z,9.10
2023-05-18T12:44:44.707Z,6.45
2023-05-18T12:47:21.814Z,6.38
2023-05-18T12:49:50.286Z,5.47
2023-05-18T12:52:17.279Z,7.15
2023-05-18T12:54:55.578Z,4.35
2023-05-18T12:57:26.556Z,5.28
2023-05-18T12:59:54.856Z,6.97
2023-05-18T13:02:30.351Z,6.25
2023-05-18T13:05:09.708Z,5.45
2023-05-18T13:07:46.372Z,6.60
2023-05-18T13:10:17.387Z,8.27
2023-05-18T13:12:46.423Z,8.50
2023-05-18T13:15:15.051Z,8.43
2023-05-18T13:18:03.556Z,5.45
2023-05-18T13:20:38.887Z,5.55
2023-05-18T13:23:14.579Z,7.70
2023-05-18T13:25:42.203Z,7.30
2023-05-18T13:28:11.249Z,5.60
2023-05-18T13:30:41.793Z,12.48
2023-05-18T13:33:09.439Z,4.63
2023-05-18T13:35:37.247Z,9.55
2023-05-18T13:38:04.318Z,8.77
2023-05-18T13:40:31.434Z,4.78
2023-05-18T13:42:58.343Z,7.25
2023-05-18T13:45:25.290Z,3.47
2023-05-18T13:47:53.708Z,6.22
2023-05-18T13:50:21.355Z,6.50
2023-05-18T13:52:48.758Z,11.20
2023-05-18T13:55:26.723Z,14.88
2023-05-18T13:57:53.738Z,10.27
2023-05-18T14:00:21.564Z,8.38
2023-05-18T14:02:48.998Z,9.52
2023-05-18T14:05:16.483Z,6.22
2023-05-18T14:07:44.291Z,9.02
2023-05-18T14:10:12.963Z,8.93
2023-05-18T14:12:42.360Z,7.47
2023-05-18T14:15:10.305Z,5.22
2023-05-18T14:17:38.269Z,9.38
2023-05-18T14:20:07.126Z,8.60
2023-05-18T14:22:34.311Z,7.65
2023-05-18T14:25:01.274Z,6.47
2023-05-18T14:27:29.335Z,7.75
2023-05-18T14:29:56.649Z,6.60
2023-05-18T14:32:23.855Z,6.13
2023-05-18T14:34:55.372Z,7.20
2023-05-18T14:37:22.512Z,7.95
2023-05-18T14:39:49.577Z,7.45
2023-05-18T14:42:17.412Z,8.90
2023-05-18T14:44:44.800Z,16.73
2023-05-18T14:47:11.805Z,14.48
2023-05-18T14:49:38.871Z,12.13
2023-05-18T14:52:06.270Z,14.35
2023-05-18T14:54:33.344Z,9.15
2023-05-18T14:57:01.314Z,7.97
2023-05-18T14:59:28.280Z,9.90
2023-05-18T15:01:55.617Z,9.27
2023-05-18T15:04:23.710Z,8.15
2023-05-18T15:06:51.231Z,8.50
2023-05-18T15:09:18.111Z,7.90
2023-05-18T15:11:46.522Z,11.00
2023-05-18T15:14:13.930Z,11.60
2023-05-18T15:16:41.176Z,10.40
2023-05-18T15:19:08.252Z,10.90
2023-05-18T15:21:35.327Z,9.30
2023-05-18T15:24:02.644Z,10.50
2023-05-18T15:26:29.778Z,6.75
2023-05-18T15:28:56.765Z,9.50
2023-05-18T15:31:23.743Z,9.68
2023-05-18T15:33:50.755Z,6.93
2023-05-18T15:36:17.806Z,8.02
2023-05-18T15:38:45.476Z,6.20
2023-05-18T15:41:12.469Z,8.63
2023-05-18T15:43:40.833Z,6.35
2023-05-18T15:46:08.085Z,5.57
2023-05-18T15:48:35.545Z,9.10
2023-05-18T15:51:02.480Z,7.03
2023-05-18T15:53:29.388Z,10.65
2023-05-18T15:55:59.081Z,12.85
2023-05-18T15:58:26.876Z,7.18
2023-05-18T16:00:56.458Z,6.50
2023-05-18T16:03:23.514Z,9.13
2023-05-18T16:05:50.664Z,7.00
2023-05-18T16:08:17.619Z,9.55
2023-05-18T16:10:44.542Z,9.45
2023-05-18T16:16:19.759Z,14.75
2023-05-18T16:18:47.170Z,12.70
2023-05-18T16:21:14.216Z,11.68
2023-05-18T16:23:41.722Z,15.88
2023-05-18T16:26:30.193Z,20.48
2023-05-18T16:28:57.108Z,24.88
2023-05-18T16:31:26.358Z,11.13
2023-05-18T16:33:53.365Z,8.68
2023-05-18T16:36:21.001Z,13.98
2023-05-18T16:38:55.182Z,10.55
2023-05-18T16:41:22.565Z,10.00
2023-05-18T16:43:51.903Z,9.88
2023-05-18T16:46:20.083Z,10.43
2023-05-18T16:48:47.064Z,7.40
2023-05-18T16:51:14.023Z,7.97
2023-05-18T16:53:41.123Z,6.63
2023-05-18T16:56:08.040Z,8.10
2023-05-18T16:58:35.059Z,7.07
2023-05-18T17:01:02.127Z,5.60
2023-05-18T17:03:29.509Z,4.72
2023-05-18T17:05:56.671Z,4.70
2023-05-18T17:08:24.157Z,5.55
2023-05-18T17:10:51.074Z,10.77
2023-05-18T17:13:18.088Z,8.68
2023-05-18T17:15:45.186Z,9.77
2023-05-18T17:18:12.269Z,8.40
2023-05-18T17:20:39.325Z,11.52
2023-05-18T17:23:06.310Z,8.18
2023-05-18T17:25:33.680Z,5.07
2023-05-18T17:28:00.617Z,5.88
2023-05-18T17:30:27.939Z,4.82
2023-05-18T17:32:55.974Z,4.60
2023-05-18T17:35:22.992Z,7.85
2023-05-18T17:37:50.362Z,5.95
2023-05-18T17:40:17.299Z,5.40
2023-05-18T17:42:44.172Z,5.90
2023-05-18T17:45:11.355Z,6.60
2023-05-18T17:47:38.841Z,7.13
2023-05-18T17:50:06.366Z,6.63
2023-05-18T17:52:33.357Z,5.82
2023-05-18T17:55:00.561Z,6.13
2023-05-18T17:57:28.104Z,8.75
2023-05-18T17:59:54.989Z,7.78
2023-05-18T18:02:22.249Z,7.53
2023-05-18T18:04:49.664Z,6.75
2023-05-18T18:07:16.726Z,7.10
2023-05-18T18:09:43.702Z,7.95
2023-05-18T18:12:11.127Z,6.70
2023-05-18T18:14:38.068Z,6.82
2023-05-18T18:17:05.242Z,5.15
2023-05-18T18:19:32.392Z,6.13
2023-05-18T18:21:59.369Z,6.22
2023-05-18T18:24:26.757Z,7.13
2023-05-18T18:26:55.758Z,7.18
2023-05-18T18:29:30.536Z,4.95
2023-05-18T18:31:57.955Z,6.60
2023-05-18T18:34:24.825Z,8.73
2023-05-18T18:36:51.799Z,10.52
2023-05-18T18:39:18.655Z,5.55
2023-05-18T18:41:46.005Z,6.95
2023-05-18T18:44:20.383Z,9.77
2023-05-18T18:46:47.906Z,7.45
2023-05-18T18:49:14.999Z,4.65
2023-05-18T18:51:42.595Z,6.22
2023-05-18T18:54:12.951Z,7.03
2023-05-18T18:56:40.366Z,7.35
2023-05-18T18:59:07.667Z,7.25
2023-05-18T19:01:38.567Z,8.18
2023-05-18T19:04:05.758Z,8.45
2023-05-18T19:06:33.553Z,7.55
2023-05-18T19:09:00.987Z,8.35
2023-05-18T19:11:28.034Z,10.95
2023-05-18T19:13:56.442Z,8.35
2023-05-18T19:16:33.070Z,8.43
2023-05-18T19:19:00.565Z,8.32
2023-05-18T19:21:29.196Z,7.50
2023-05-18T19:23:56.440Z,9.43
2023-05-18T19:26:24.072Z,9.70
2023-05-18T19:28:51.381Z,8.23
2023-05-18T19:31:18.334Z,10.18
2023-05-18T19:33:45.366Z,8.85
2023-05-18T19:36:13.755Z,7.75
2023-05-18T19:38:40.711Z,8.63
2023-05-18T19:41:07.733Z,10.52
2023-05-18T19:43:34.695Z,9.00
2023-05-18T19:46:02.224Z,8.25
2023-05-18T19:48:31.170Z,7.68
2023-05-18T19:50:58.517Z,7.30
2023-05-18T19:53:25.485Z,7.65
2023-05-18T19:55:52.360Z,7.10
2023-05-18T19:58:19.686Z,6.68
2023-05-18T20:00:48.518Z,7.78
2023-05-18T20:03:45.520Z,7.07
2023-05-18T20:06:12.662Z,8.98
2023-05-18T20:08:40.057Z,8.70
2023-05-18T20:11:06.967Z,9.02
2023-05-18T20:13:34.014Z,9.13
2023-05-18T20:16:05.876Z,9.30
2023-05-18T20:18:35.047Z,7.90
2023-05-18T20:21:02.181Z,10.50
2023-05-18T20:23:29.403Z,9.38
2023-05-18T20:25:57.182Z,10.13
2023-05-18T20:28:26.384Z,9.48
2023-05-18T20:30:53.705Z,10.05
2023-05-18T20:33:21.038Z,9.23
2023-05-18T20:35:49.677Z,9.68
2023-05-18T20:38:16.906Z,11.20
2023-05-18T20:40:44.276Z,13.13
2023-05-18T20:43:17.724Z,14.13
2023-05-18T20:45:49.466Z,10.95
2023-05-18T20:48:24.547Z,12.43
2023-05-18T20:50:54.945Z,15.40
2023-05-18T20:53:22.252Z,12.38
2023-05-18T20:55:50.445Z,14.23
2023-05-18T20:58:18.650Z,11.13
2023-05-18T21:00:46.737Z,17.92
2023-05-18T21:03:14.743Z,18.88
2023-05-18T21:05:43.482Z,16.15
2023-05-18T21:08:10.601Z,18.27
2023-05-18T21:10:37.912Z,17.15
2023-05-18T21:13:04.961Z,17.20
2023-05-18T21:15:36.417Z,11.85
2023-05-18T21:18:04.219Z,13.75
2023-05-18T21:20:32.045Z,13.18
2023-05-18T21:22:59.237Z,12.18
2023-05-18T21:25:26.309Z,15.43
2023-05-18T21:27:53.225Z,11.68
2023-05-18T21:30:20.219Z,9.60
2023-05-18T21:32:49.109Z,12.98
2023-05-18T21:35:17.331Z,11.50
2023-05-18T21:37:44.737Z,8.95
2023-05-18T21:40:12.198Z,9.35
2023-05-18T21:42:45.087Z,9.00
2023-05-18T21:45:13.519Z,9.63
2023-05-18T21:47:40.595Z,8.27
2023-05-18T21:50:08.011Z,9.02
2023-05-18T21:52:35.448Z,10.23
2023-05-18T21:55:02.482Z,8.55
2023-05-18T21:57:29.429Z,10.23
2023-05-18T21:59:56.403Z,9.68
2023-05-18T22:02:23.372Z,9.77
2023-05-18T22:04:52.803Z,9.00
2023-05-18T22:07:23.143Z,10.45
2023-05-18T22:09:52.069Z,10.23
2023-05-18T22:12:19.509Z,10.77
2023-05-18T22:14:46.397Z,10.95
2023-05-18T22:17:13.796Z,9.60
2023-05-18T22:19:42.231Z,9.93
2023-05-18T22:22:13.881Z,8.95
2023-05-18T22:24:45.084Z,9.75
2023-05-18T22:27:12.078Z,10.48
2023-05-18T22:29:39.015Z,10.23
2023-05-18T22:32:06.540Z,11.32
2023-05-18T22:34:33.875Z,11.65
2023-05-18T22:37:00.922Z,11.23
2023-05-18T22:39:27.855Z,11.30
2023-05-18T22:41:54.750Z,13.93
2023-05-18T22:44:21.683Z,10.52
2023-05-18T22:46:48.814Z,10.25
2023-05-18T22:49:16.783Z,12.52
2023-05-18T22:51:45.804Z,11.68
2023-05-18T22:54:15.800Z,10.77
2023-05-18T22:56:43.092Z,9.50
2023-05-18T22:59:11.859Z,10.38
2023-05-18T23:01:39.423Z,10.20
2023-05-18T23:04:07.122Z,9.82
2023-05-18T23:06:34.704Z,10.15
2023-05-18T23:09:03.317Z,9.70
2023-05-18T23:11:31.024Z,8.35
2023-05-18T23:14:02.599Z,9.07
2023-05-18T23:16:29.882Z,8.75
2023-05-18T23:18:58.803Z,11.35
2023-05-18T23:21:26.486Z,8.93
2023-05-18T23:23:54.549Z,8.30
2023-05-18T23:26:22.708Z,8.38
2023-05-18T23:28:50.068Z,8.25
2023-05-18T23:31:17.668Z,8.43
2023-05-18T23:33:45.031Z,7.53
2023-05-18T23:36:12.780Z,8.10
2023-05-18T23:38:41.000Z,9.43
2023-05-18T23:41:08.661Z,7.45
2023-05-18T23:43:35.984Z,7.97
2023-05-18T23:46:05.051Z,7.53
2023-05-18T23:48:32.779Z,10.90
2023-05-18T23:51:02.390Z,8.52
2023-05-18T23:53:30.510Z,6.85
2023-05-18T23:55:59.227Z,8.35
2023-05-18T23:58:31.772Z,6.38
